createdAt,value
2022-12-19T00:01:32.487Z,-6.74
2022-12-19T00:03:35.177Z,-6.75
2022-12-19T00:05:39.318Z,-6.74
2022-12-19T00:07:41.223Z,-6.84
2022-12-19T00:09:43.137Z,-6.84
2022-12-19T00:11:47.858Z,-6.90
2022-12-19T00:13:51.585Z,-6.85
2022-12-19T00:15:53.744Z,-6.89
2022-12-19T00:17:55.676Z,-6.90
2022-12-19T00:19:57.606Z,-6.96
2022-12-19T00:21:59.562Z,-6.98
2022-12-19T00:24:02.099Z,-7.09
2022-12-19T00:26:21.639Z,-7.07
2022-12-19T00:28:23.590Z,-7.08
2022-12-19T00:30:25.618Z,-7.06
2022-12-19T00:32:28.077Z,-7.07
2022-12-19T00:34:29.986Z,-7.11
2022-12-19T00:36:34.238Z,-7.09
2022-12-19T00:38:36.089Z,-7.16
2022-12-19T00:40:37.958Z,-7.18
2022-12-19T00:42:39.942Z,-7.20
2022-12-19T00:44:42.881Z,-7.18
2022-12-19T00:46:51.505Z,-7.26
2022-12-19T00:48:55.374Z,-7.22
2022-12-19T00:51:02.414Z,-7.24
2022-12-19T00:53:04.294Z,-7.22
2022-12-19T00:55:09.260Z,-7.23
2022-12-19T00:57:20.298Z,-7.21
2022-12-19T00:59:26.378Z,-7.20
2022-12-19T01:01:34.946Z,-7.19
2022-12-19T01:03:37.098Z,-7.19
2022-12-19T01:05:42.053Z,-7.18
2022-12-19T01:07:44.096Z,-7.16
2022-12-19T01:09:46.000Z,-7.16
2022-12-19T01:12:09.207Z,-7.13
2022-12-19T01:14:17.427Z,-7.18
2022-12-19T01:16:22.862Z,-7.10
2022-12-19T01:18:24.752Z,-7.15
2022-12-19T01:20:29.547Z,-7.20
2022-12-19T01:22:31.819Z,-7.17
2022-12-19T01:24:33.670Z,-7.18
2022-12-19T01:26:35.606Z,-7.19
2022-12-19T01:28:37.493Z,-7.19
2022-12-19T01:30:40.293Z,-7.22
2022-12-19T01:32:43.633Z,-7.20
2022-12-19T01:34:45.581Z,-7.17
2022-12-19T01:36:47.506Z,-7.20
2022-12-19T01:38:49.441Z,-7.19
2022-12-19T01:40:53.300Z,-7.16
2022-12-19T01:42:55.193Z,-7.16
2022-12-19T01:45:13.391Z,-7.12
2022-12-19T01:47:15.735Z,-7.23
2022-12-19T01:49:25.943Z,-7.22
2022-12-19T01:51:41.723Z,-7.22
2022-12-19T01:53:49.676Z,-7.21
2022-12-19T01:55:53.097Z,-7.28
2022-12-19T01:57:57.290Z,-7.34
2022-12-19T02:00:01.424Z,-7.33
2022-12-19T02:02:26.977Z,-7.32
2022-12-19T02:04:32.721Z,-7.32
2022-12-19T02:06:35.333Z,-7.35
2022-12-19T02:08:38.045Z,-7.36
2022-12-19T02:10:40.003Z,-7.47
2022-12-19T02:12:44.454Z,-7.39
2022-12-19T02:14:47.260Z,-7.40
2022-12-19T02:17:00.992Z,-7.38
2022-12-19T02:19:27.444Z,-7.44
2022-12-19T02:21:29.253Z,-7.49
2022-12-19T02:24:18.146Z,-7.54
2022-12-19T02:26:40.332Z,-7.58
2022-12-19T02:29:00.889Z,-7.72
2022-12-19T02:31:20.034Z,-7.82
2022-12-19T02:33:39.310Z,-7.89
2022-12-19T02:35:47.090Z,-7.97
2022-12-19T02:37:56.030Z,-8.01
2022-12-19T02:40:09.608Z,-8.04
2022-12-19T02:42:15.455Z,-8.16
2022-12-19T02:44:33.801Z,-8.21
2022-12-19T02:46:35.742Z,-8.31
2022-12-19T02:48:38.390Z,-8.27
2022-12-19T02:50:46.610Z,-8.30
2022-12-19T02:52:51.868Z,-8.39
2022-12-19T02:54:58.043Z,-8.46
2022-12-19T02:57:15.497Z,-8.50
2022-12-19T02:59:56.263Z,-8.52
2022-12-19T03:02:13.338Z,-8.46
2022-12-19T03:04:33.448Z,-8.57
2022-12-19T03:06:44.168Z,-8.66
2022-12-19T03:08:59.348Z,-8.70
2022-12-19T03:11:04.093Z,-8.75
2022-12-19T03:13:23.161Z,-8.78
2022-12-19T03:15:26.505Z,-8.79
2022-12-19T03:17:29.307Z,-8.82
2022-12-19T03:19:32.223Z,-8.81
2022-12-19T03:21:44.795Z,-8.82
2022-12-19T03:23:48.297Z,-8.95
2022-12-19T03:26:01.585Z,-8.95
2022-12-19T03:28:12.535Z,-9.07
2022-12-19T03:30:15.950Z,-9.11
2022-12-19T03:32:18.951Z,-9.15
2022-12-19T03:34:31.419Z,-9.07
2022-12-19T03:36:40.410Z,-9.15
2022-12-19T03:38:45.537Z,-9.18
2022-12-19T03:40:49.359Z,-9.32
2022-12-19T03:43:12.311Z,-9.25
2022-12-19T03:45:24.229Z,-9.39
2022-12-19T03:47:58.806Z,-9.31
2022-12-19T03:50:00.810Z,-9.29
2022-12-19T03:52:11.753Z,-9.36
2022-12-19T03:54:30.261Z,-9.41
2022-12-19T03:56:56.211Z,-9.38
2022-12-19T03:59:03.789Z,-9.44
2022-12-19T04:01:06.856Z,-9.43
2022-12-19T04:03:10.479Z,-9.41
2022-12-19T04:05:18.361Z,-9.43
2022-12-19T04:07:21.597Z,-9.33
2022-12-19T04:09:25.650Z,-9.36
2022-12-19T04:11:34.674Z,-9.37
2022-12-19T04:13:43.975Z,-9.41
2022-12-19T04:15:51.073Z,-9.37
2022-12-19T04:17:58.122Z,-9.47
2022-12-19T04:20:05.250Z,-9.44
2022-12-19T04:22:22.989Z,-9.47
2022-12-19T04:24:30.807Z,-9.44
2022-12-19T04:26:36.867Z,-9.42
2022-12-19T04:28:43.853Z,-9.42
2022-12-19T04:30:46.824Z,-9.49
2022-12-19T04:32:50.823Z,-9.54
2022-12-19T04:34:53.696Z,-9.51
2022-12-19T04:36:55.773Z,-9.58
2022-12-19T04:38:58.325Z,-9.60
2022-12-19T04:41:00.195Z,-9.51
2022-12-19T04:43:02.245Z,-9.64
2022-12-19T04:45:06.567Z,-9.61
2022-12-19T04:47:08.820Z,-9.63
2022-12-19T04:49:10.749Z,-9.53
2022-12-19T04:51:12.773Z,-9.60
2022-12-19T04:53:15.704Z,-9.61
2022-12-19T04:55:17.594Z,-9.65
2022-12-19T04:57:19.547Z,-9.62
2022-12-19T04:59:21.461Z,-9.57
2022-12-19T05:01:23.345Z,-9.66
2022-12-19T05:03:25.352Z,-9.81
2022-12-19T05:05:27.344Z,-9.85
2022-12-19T05:07:29.336Z,-9.78
2022-12-19T05:09:31.220Z,-9.85
2022-12-19T05:11:34.177Z,-9.93
2022-12-19T05:13:36.389Z,-9.94
2022-12-19T05:15:38.401Z,-9.79
2022-12-19T05:17:41.255Z,-9.84
2022-12-19T05:19:43.157Z,-9.82
2022-12-19T05:21:45.611Z,-9.91
2022-12-19T05:23:47.722Z,-9.98
2022-12-19T05:25:50.368Z,-10.00
2022-12-19T05:27:52.259Z,-10.05
2022-12-19T05:29:55.156Z,-9.95
2022-12-19T05:31:57.088Z,-10.10
2022-12-19T05:33:59.539Z,-10.01
2022-12-19T05:36:02.821Z,-10.09
2022-12-19T05:38:05.118Z,-10.09
2022-12-19T05:40:07.691Z,-10.17
2022-12-19T05:42:12.301Z,-10.06
2022-12-19T05:44:15.589Z,-10.05
2022-12-19T05:46:18.328Z,-10.09
2022-12-19T05:48:20.243Z,-10.08
2022-12-19T05:50:22.105Z,-10.13
2022-12-19T05:52:24.893Z,-10.23
2022-12-19T05:54:27.046Z,-10.19
2022-12-19T05:56:28.999Z,-10.17
2022-12-19T05:58:31.162Z,-10.14
2022-12-19T06:00:33.059Z,-10.22
2022-12-19T06:02:35.470Z,-10.26
2022-12-19T06:04:37.457Z,-10.23
2022-12-19T06:06:39.474Z,-10.19
2022-12-19T06:08:41.880Z,-10.19
2022-12-19T06:10:43.747Z,-10.14
2022-12-19T06:12:46.766Z,-10.23
2022-12-19T06:14:49.705Z,-10.14
2022-12-19T06:16:51.618Z,-10.38
2022-12-19T06:18:53.624Z,-10.24
2022-12-19T06:21:03.019Z,-10.36
2022-12-19T06:23:04.925Z,-10.38
2022-12-19T06:25:07.218Z,-10.34
2022-12-19T06:27:09.160Z,-10.32
2022-12-19T06:29:11.122Z,-10.25
2022-12-19T06:31:13.704Z,-10.25
2022-12-19T06:33:15.750Z,-10.30
2022-12-19T06:35:17.857Z,-10.27
2022-12-19T06:37:19.850Z,-10.30
2022-12-19T06:39:22.632Z,-10.47
2022-12-19T06:41:44.758Z,-10.50
2022-12-19T06:43:53.188Z,-10.53
2022-12-19T06:45:58.421Z,-10.52
2022-12-19T06:48:00.601Z,-10.56
2022-12-19T06:50:02.651Z,-10.51
2022-12-19T06:52:09.023Z,-10.52
2022-12-19T06:54:14.998Z,-10.65
2022-12-19T06:56:17.895Z,-10.68
2022-12-19T06:58:24.094Z,-10.58
2022-12-19T07:00:26.433Z,-10.60
2022-12-19T07:02:31.735Z,-10.64
2022-12-19T07:04:38.423Z,-10.60
2022-12-19T07:06:43.466Z,-10.58
2022-12-19T07:08:49.562Z,-10.64
2022-12-19T07:10:53.164Z,-10.64
2022-12-19T07:12:56.336Z,-10.60
2022-12-19T07:14:59.389Z,-10.66
2022-12-19T07:17:03.263Z,-10.67
2022-12-19T07:19:07.580Z,-10.61
2022-12-19T07:21:14.359Z,-10.69
2022-12-19T07:23:21.253Z,-10.72
2022-12-19T07:25:23.296Z,-10.69
2022-12-19T07:27:35.201Z,-10.61
2022-12-19T07:29:38.046Z,-10.63
2022-12-19T07:31:40.303Z,-10.62
2022-12-19T07:33:42.310Z,-10.61
2022-12-19T07:35:44.304Z,-10.51
2022-12-19T07:37:50.419Z,-10.52
2022-12-19T07:39:53.331Z,-10.50
2022-12-19T07:41:55.312Z,-10.36
2022-12-19T07:43:58.252Z,-10.55
2022-12-19T07:46:02.287Z,-10.22
2022-12-19T07:48:06.048Z,-10.17
2022-12-19T07:50:10.139Z,-10.18
2022-12-19T07:52:12.088Z,-9.93
2022-12-19T07:54:15.054Z,-9.72
2022-12-19T07:56:17.576Z,-9.50
2022-12-19T07:58:21.006Z,-9.48
2022-12-19T08:00:23.708Z,-9.30
2022-12-19T08:02:25.725Z,-9.45
2022-12-19T08:04:28.759Z,-9.30
2022-12-19T08:06:30.837Z,-9.22
2022-12-19T08:08:33.682Z,-9.11
2022-12-19T08:10:35.655Z,-9.05
2022-12-19T08:12:40.001Z,-8.78
2022-12-19T08:14:41.969Z,-8.64
2022-12-19T08:17:11.440Z,-8.57
2022-12-19T08:19:05.766Z,-8.38
2022-12-19T08:21:08.709Z,-8.42
2022-12-19T08:23:10.711Z,-8.33
2022-12-19T08:25:13.627Z,-8.15
2022-12-19T08:27:19.143Z,-8.08
2022-12-19T08:29:21.244Z,-8.01
2022-12-19T08:31:25.654Z,-7.96
2022-12-19T08:33:27.757Z,-7.81
2022-12-19T08:35:30.212Z,-7.73
2022-12-19T08:37:32.237Z,-7.65
2022-12-19T08:39:35.244Z,-7.39
2022-12-19T08:41:37.621Z,-7.32
2022-12-19T08:43:42.715Z,-7.39
2022-12-19T08:45:50.214Z,-7.38
2022-12-19T08:47:57.145Z,-7.22
2022-12-19T08:50:01.521Z,-7.31
2022-12-19T08:52:03.696Z,-7.18
2022-12-19T08:54:07.882Z,-7.26
2022-12-19T08:56:19.893Z,-7.02
2022-12-19T08:58:22.115Z,-7.20
2022-12-19T09:00:25.023Z,-7.01
2022-12-19T09:02:27.846Z,-6.98
2022-12-19T09:05:58.787Z,-7.03
2022-12-19T09:06:52.402Z,-6.90
2022-12-19T09:08:54.759Z,-6.98
2022-12-19T09:11:08.208Z,-6.82
2022-12-19T09:13:12.400Z,-6.89
2022-12-19T09:15:14.405Z,-6.99
2022-12-19T09:17:16.449Z,-7.06
2022-12-19T09:19:18.637Z,-7.08
2022-12-19T09:21:23.486Z,-6.94
2022-12-19T09:23:32.493Z,-6.89
2022-12-19T09:25:34.634Z,-6.87
2022-12-19T09:28:17.465Z,-6.98
2022-12-19T09:29:59.934Z,-6.92
2022-12-19T09:32:01.962Z,-7.01
2022-12-19T09:34:04.693Z,-6.90
2022-12-19T09:36:09.866Z,-6.80
2022-12-19T09:38:12.960Z,-6.60
2022-12-19T09:40:17.579Z,-6.51
2022-12-19T09:42:40.792Z,-6.51
2022-12-19T09:44:46.487Z,-6.62
2022-12-19T09:47:04.464Z,-6.43
2022-12-19T09:49:35.715Z,-6.40
2022-12-19T09:52:03.328Z,-6.47
2022-12-19T09:54:28.603Z,-6.43
2022-12-19T09:56:46.365Z,-6.28
2022-12-19T09:58:57.552Z,-6.22
2022-12-19T10:01:06.144Z,-6.21
2022-12-19T10:03:22.327Z,-6.20
2022-12-19T10:06:32.728Z,-6.33
2022-12-19T10:08:20.176Z,-6.12
2022-12-19T10:12:41.189Z,-6.14
2022-12-19T10:13:52.212Z,-6.02
2022-12-19T10:16:33.296Z,-6.08
2022-12-19T10:18:42.636Z,-6.16
2022-12-19T10:21:03.299Z,-5.96
2022-12-19T10:23:18.459Z,-5.90
2022-12-19T10:25:42.323Z,-5.78
2022-12-19T10:28:00.529Z,-5.70
2022-12-19T10:30:13.163Z,-5.73
2022-12-19T10:32:51.515Z,-6.01
2022-12-19T10:34:54.502Z,-6.32
2022-12-19T10:37:26.748Z,-5.84
2022-12-19T10:40:04.092Z,-5.67
2022-12-19T10:42:30.592Z,-5.74
2022-12-19T10:44:36.721Z,-6.20
2022-12-19T10:46:48.203Z,-6.27
2022-12-19T10:48:52.948Z,-6.48
2022-12-19T10:50:54.931Z,-6.54
2022-12-19T10:53:08.671Z,-6.81
2022-12-19T10:55:38.001Z,-6.64
2022-12-19T10:57:40.414Z,-6.56
2022-12-19T11:00:17.099Z,-6.38
2022-12-19T11:02:33.482Z,-6.50
2022-12-19T11:04:37.190Z,-6.61
2022-12-19T11:06:45.477Z,-6.69
2022-12-19T11:08:47.506Z,-6.57
2022-12-19T11:13:15.507Z,-6.31
2022-12-19T11:19:50.056Z,-5.86
2022-12-19T11:19:50.797Z,-5.64
2022-12-19T11:25:25.172Z,-5.41
2022-12-19T11:29:33.018Z,-5.41
2022-12-19T11:30:09.323Z,-5.54
2022-12-19T11:30:47.997Z,-6.56
2022-12-19T11:30:48.671Z,-6.63
2022-12-19T11:33:10.659Z,-5.87
2022-12-19T11:35:36.584Z,-5.65
2022-12-19T11:37:48.216Z,-5.64
2022-12-19T11:40:02.267Z,-5.63
2022-12-19T11:42:20.069Z,-5.66
2022-12-19T11:44:48.791Z,-5.70
2022-12-19T11:47:06.972Z,-5.70
2022-12-19T11:49:31.423Z,-5.61
2022-12-19T11:51:48.618Z,-5.54
2022-12-19T11:54:23.212Z,-5.54
2022-12-19T11:56:28.040Z,-5.58
2022-12-19T11:58:30.263Z,-5.59
2022-12-19T12:00:33.939Z,-5.58
2022-12-19T12:03:05.313Z,-5.62
2022-12-19T12:05:42.404Z,-5.61
2022-12-19T12:08:00.977Z,-5.72
2022-12-19T12:17:27.166Z,-5.70
2022-12-19T12:21:51.783Z,-5.82
2022-12-19T12:30:16.392Z,-5.66
2022-12-19T12:31:06.801Z,-5.65
2022-12-19T12:31:27.901Z,-5.68
2022-12-19T12:31:29.546Z,-5.62
2022-12-19T12:31:44.390Z,-5.66
2022-12-19T12:31:57.751Z,-5.75
2022-12-19T12:35:28.858Z,-5.60
2022-12-19T12:39:55.293Z,-5.58
2022-12-19T12:42:16.341Z,-5.63
2022-12-19T12:44:22.635Z,-5.60
2022-12-19T12:47:05.386Z,-5.58
2022-12-19T12:49:24.436Z,-5.60
2022-12-19T12:51:27.720Z,-5.65
2022-12-19T12:53:37.535Z,-5.63
2022-12-19T12:55:43.092Z,-5.55
2022-12-19T12:57:45.120Z,-5.51
2022-12-19T12:59:48.072Z,-5.52
2022-12-19T13:02:02.214Z,-5.53
2022-12-19T13:04:19.769Z,-5.56
2022-12-19T13:06:48.352Z,-5.59
2022-12-19T13:08:53.963Z,-5.55
2022-12-19T13:11:00.389Z,-5.61
2022-12-19T13:13:19.787Z,-5.60
2022-12-19T13:15:28.663Z,-5.53
2022-12-19T13:17:33.473Z,-5.57
2022-12-19T13:19:57.815Z,-5.61
2022-12-19T13:22:22.751Z,-5.68
2022-12-19T13:24:24.748Z,-5.78
2022-12-19T13:26:59.242Z,-5.70
2022-12-19T13:29:34.362Z,-5.80
2022-12-19T13:31:36.592Z,-5.80
2022-12-19T13:33:56.050Z,-5.97
2022-12-19T13:39:52.391Z,-6.70
2022-12-19T13:39:54.402Z,-6.81
2022-12-19T13:41:01.435Z,-6.85
2022-12-19T13:43:24.455Z,-6.57
2022-12-19T13:45:30.939Z,-6.31
2022-12-19T13:47:36.944Z,-6.24
2022-12-19T13:49:39.284Z,-6.13
2022-12-19T13:51:57.107Z,-6.16
2022-12-19T13:54:00.066Z,-6.11
2022-12-19T13:56:05.177Z,-6.11
2022-12-19T13:58:08.723Z,-6.22
2022-12-19T14:00:16.815Z,-6.16
2022-12-19T14:02:27.629Z,-6.12
2022-12-19T14:04:32.554Z,-6.16
2022-12-19T14:06:46.269Z,-6.19
2022-12-19T14:09:20.483Z,-6.14
2022-12-19T14:11:37.234Z,-6.22
2022-12-19T14:14:27.962Z,-6.23
2022-12-19T14:16:43.345Z,-6.16
2022-12-19T14:18:50.765Z,-6.29
2022-12-19T14:22:03.940Z,-6.35
2022-12-19T14:23:43.754Z,-6.29
2022-12-19T14:28:27.677Z,-6.30
2022-12-19T14:28:29.244Z,-6.24
2022-12-19T14:30:35.148Z,-6.33
2022-12-19T14:33:45.140Z,-6.31
2022-12-19T14:36:06.875Z,-6.42
2022-12-19T14:38:12.529Z,-6.28
2022-12-19T14:40:25.143Z,-6.33
2022-12-19T14:43:59.873Z,-6.46
2022-12-19T14:52:34.427Z,-6.48
2022-12-19T14:53:08.459Z,-6.44
2022-12-19T14:54:07.297Z,-6.42
2022-12-19T14:54:37.733Z,-6.41
2022-12-19T14:56:12.224Z,-6.41
2022-12-19T14:58:54.885Z,-6.37
2022-12-19T15:01:10.066Z,-6.34
2022-12-19T15:03:15.709Z,-6.46
2022-12-19T15:05:20.561Z,-6.35
2022-12-19T15:07:27.140Z,-6.41
2022-12-19T15:11:01.101Z,-6.34
2022-12-19T15:14:47.270Z,-6.39
2022-12-19T15:14:59.023Z,-6.34
2022-12-19T15:17:21.206Z,-6.33
2022-12-19T15:19:25.547Z,-6.37
2022-12-19T15:21:30.075Z,-6.35
2022-12-19T15:23:32.986Z,-6.53
2022-12-19T15:26:02.735Z,-6.49
2022-12-19T15:27:57.371Z,-6.50
2022-12-19T15:30:02.520Z,-6.37
2022-12-19T15:32:04.624Z,-6.32
2022-12-19T15:34:38.020Z,-6.31
2022-12-19T15:36:42.397Z,-6.42
2022-12-19T15:38:44.481Z,-6.39
2022-12-19T15:40:50.033Z,-6.51
2022-12-19T15:42:57.901Z,-6.55
2022-12-19T15:45:01.348Z,-6.61
2022-12-19T15:47:06.520Z,-6.64
2022-12-19T15:49:15.697Z,-6.60
2022-12-19T15:51:18.046Z,-6.56
2022-12-19T15:53:40.229Z,-6.38
2022-12-19T15:55:44.063Z,-6.41
2022-12-19T15:58:00.002Z,-6.47
2022-12-19T16:00:05.526Z,-6.42
2022-12-19T16:02:37.524Z,-6.21
2022-12-19T16:04:54.585Z,-6.18
2022-12-19T16:07:01.956Z,-6.16
2022-12-19T16:09:17.705Z,-6.08
2022-12-19T16:11:23.507Z,-6.09
2022-12-19T16:13:29.036Z,-6.13
2022-12-19T16:15:34.607Z,-6.19
2022-12-19T16:17:38.381Z,-6.12
2022-12-19T16:19:45.707Z,-6.23
2022-12-19T16:21:47.981Z,-6.11
2022-12-19T16:23:50.107Z,-6.08
2022-12-19T16:25:53.506Z,-6.16
2022-12-19T16:27:58.603Z,-6.11
2022-12-19T16:30:19.255Z,-6.07
2022-12-19T16:32:36.852Z,-6.06
2022-12-19T16:34:38.916Z,-6.02
2022-12-19T16:36:43.779Z,-6.07
2022-12-19T16:38:46.079Z,-6.10
2022-12-19T16:40:51.326Z,-6.12
2022-12-19T16:43:04.809Z,-5.96
2022-12-19T16:45:29.105Z,-5.99
2022-12-19T16:47:31.203Z,-6.04
2022-12-19T16:49:33.303Z,-6.06
2022-12-19T16:51:35.984Z,-6.04
2022-12-19T16:53:38.003Z,-6.00
2022-12-19T16:55:40.535Z,-6.04
2022-12-19T16:57:45.281Z,-5.94
2022-12-19T16:59:49.143Z,-6.06
2022-12-19T17:01:54.039Z,-6.06
2022-12-19T17:03:56.483Z,-6.13
2022-12-19T17:06:18.482Z,-6.11
2022-12-19T17:08:21.505Z,-6.05
2022-12-19T17:10:29.821Z,-6.02
2022-12-19T17:12:32.040Z,-5.95
2022-12-19T17:14:34.156Z,-6.00
2022-12-19T17:16:36.929Z,-6.01
2022-12-19T17:18:42.113Z,-5.96
2022-12-19T17:20:46.750Z,-6.02
2022-12-19T17:22:48.771Z,-5.95
2022-12-19T17:24:54.683Z,-5.96
2022-12-19T17:26:58.741Z,-5.92
2022-12-19T17:29:00.743Z,-5.96
2022-12-19T17:31:06.496Z,-5.95
2022-12-19T17:33:15.624Z,-5.98
2022-12-19T17:35:25.851Z,-5.94
2022-12-19T17:37:30.060Z,-6.00
2022-12-19T17:39:35.031Z,-5.85
2022-12-19T17:41:37.125Z,-5.86
2022-12-19T17:43:39.098Z,-5.79
2022-12-19T17:45:41.837Z,-5.81
2022-12-19T17:47:46.342Z,-5.77
2022-12-19T17:49:48.887Z,-5.86
2022-12-19T17:51:54.853Z,-5.84
2022-12-19T17:53:57.800Z,-5.77
2022-12-19T17:56:00.719Z,-5.70
2022-12-19T17:58:02.877Z,-5.76
2022-12-19T18:00:05.263Z,-5.73
2022-12-19T18:02:20.211Z,-5.66
2022-12-19T18:04:24.493Z,-5.56
2022-12-19T18:06:26.678Z,-5.64
2022-12-19T18:08:32.023Z,-5.64
2022-12-19T18:10:34.065Z,-5.56
2022-12-19T18:12:36.124Z,-5.56
2022-12-19T18:14:38.233Z,-5.58
2022-12-19T18:16:40.385Z,-5.57
2022-12-19T18:18:42.765Z,-5.50
2022-12-19T18:20:45.106Z,-5.57
2022-12-19T18:22:48.449Z,-5.46
2022-12-19T18:24:50.557Z,-5.46
2022-12-19T18:26:52.955Z,-5.50
2022-12-19T18:28:55.148Z,-5.45
2022-12-19T18:31:02.308Z,-5.47
2022-12-19T18:33:06.569Z,-5.45
2022-12-19T18:35:17.470Z,-5.40
2022-12-19T18:37:19.815Z,-5.36
2022-12-19T18:39:27.937Z,-5.33
2022-12-19T18:41:30.094Z,-5.38
2022-12-19T18:43:33.738Z,-5.36
2022-12-19T18:45:41.699Z,-5.35
2022-12-19T18:47:51.332Z,-5.26
2022-12-19T18:49:53.970Z,-5.21
2022-12-19T18:51:56.621Z,-5.21
2022-12-19T18:53:58.925Z,-5.17
2022-12-19T18:56:03.110Z,-5.23
2022-12-19T18:58:05.183Z,-5.16
2022-12-19T19:00:09.183Z,-5.08
2022-12-19T19:02:27.773Z,-5.06
2022-12-19T19:04:30.761Z,-5.06
2022-12-19T19:06:38.123Z,-5.02
2022-12-19T19:08:41.158Z,-5.09
2022-12-19T19:10:44.320Z,-5.00
2022-12-19T19:12:48.748Z,-5.00
2022-12-19T19:14:53.099Z,-5.01
2022-12-19T19:16:56.582Z,-4.95
2022-12-19T19:19:01.429Z,-4.93
2022-12-19T19:21:04.922Z,-4.90
2022-12-19T19:23:10.688Z,-4.93
2022-12-19T19:25:12.910Z,-4.88
2022-12-19T19:27:16.416Z,-4.98
2022-12-19T19:29:23.513Z,-4.95
2022-12-19T19:31:28.290Z,-5.06
2022-12-19T19:33:38.456Z,-5.04
2022-12-19T19:35:45.835Z,-5.06
2022-12-19T19:37:52.383Z,-5.04
2022-12-19T19:39:55.808Z,-5.01
2022-12-19T19:41:58.232Z,-4.84
2022-12-19T19:44:04.538Z,-4.83
2022-12-19T19:46:06.697Z,-4.71
2022-12-19T19:48:08.974Z,-4.72
2022-12-19T19:50:12.762Z,-4.65
2022-12-19T19:52:16.901Z,-4.67
2022-12-19T19:54:19.784Z,-4.67
2022-12-19T19:56:22.392Z,-4.62
2022-12-19T19:58:27.326Z,-4.57
2022-12-19T20:00:29.559Z,-4.52
2022-12-19T20:02:31.916Z,-4.51
2022-12-19T20:04:35.149Z,-4.45
2022-12-19T20:06:37.463Z,-4.35
2022-12-19T20:08:40.908Z,-4.39
2022-12-19T20:10:44.371Z,-4.33
2022-12-19T20:12:46.940Z,-4.42
2022-12-19T20:14:49.004Z,-4.42
2022-12-19T20:16:51.379Z,-4.34
2022-12-19T20:18:53.989Z,-4.42
2022-12-19T20:20:57.764Z,-4.48
2022-12-19T20:23:00.006Z,-4.53
2022-12-19T20:25:02.449Z,-4.55
2022-12-19T20:27:05.010Z,-4.52
2022-12-19T20:29:08.092Z,-4.51
2022-12-19T20:31:11.345Z,-4.55
2022-12-19T20:33:13.991Z,-4.54
2022-12-19T20:35:16.423Z,-4.48
2022-12-19T20:37:19.202Z,-4.50
2022-12-19T20:39:22.446Z,-4.43
2022-12-19T20:41:25.656Z,-4.41
2022-12-19T20:43:27.875Z,-4.41
2022-12-19T20:45:32.450Z,-4.39
2022-12-19T20:47:40.594Z,-4.32
2022-12-19T20:49:42.562Z,-4.33
2022-12-19T20:51:45.002Z,-4.33
2022-12-19T20:53:47.802Z,-4.30
2022-12-19T20:55:58.273Z,-4.23
2022-12-19T20:58:00.726Z,-4.23
2022-12-19T21:00:07.880Z,-4.28
2022-12-19T21:02:11.465Z,-4.22
2022-12-19T21:04:15.720Z,-4.16
2022-12-19T21:06:20.040Z,-4.17
2022-12-19T21:08:22.818Z,-4.16
2022-12-19T21:10:25.841Z,-4.13
2022-12-19T21:12:29.589Z,-4.14
2022-12-19T21:14:31.809Z,-4.13
2022-12-19T21:16:39.795Z,-4.11
2022-12-19T21:18:43.172Z,-4.04
2022-12-19T21:20:45.394Z,-4.03
2022-12-19T21:22:53.410Z,-4.04
2022-12-19T21:24:55.733Z,-4.06
2022-12-19T21:26:58.407Z,-3.97
2022-12-19T21:29:00.930Z,-3.98
2022-12-19T21:31:12.061Z,-3.94
2022-12-19T21:33:14.139Z,-3.79
2022-12-19T21:35:16.171Z,-3.76
2022-12-19T21:37:18.169Z,-3.72
2022-12-19T21:39:25.534Z,-3.72
2022-12-19T21:41:29.570Z,-3.59
2022-12-19T21:43:35.563Z,-3.50
2022-12-19T21:45:37.423Z,-3.43
2022-12-19T21:47:40.340Z,-3.37
2022-12-19T21:49:42.413Z,-3.21
2022-12-19T21:51:44.340Z,-3.21
2022-12-19T21:53:47.499Z,-3.17
2022-12-19T21:55:50.422Z,-3.13
2022-12-19T21:57:52.427Z,-3.06
2022-12-19T21:59:54.456Z,-3.09
2022-12-19T22:01:56.543Z,-3.11
2022-12-19T22:04:00.709Z,-3.09
2022-12-19T22:06:06.075Z,-3.10
2022-12-19T22:08:10.967Z,-3.06
2022-12-19T22:10:14.081Z,-3.02
2022-12-19T22:12:16.006Z,-2.94
2022-12-19T22:14:18.572Z,-2.87
2022-12-19T22:16:20.527Z,-2.83
2022-12-19T22:18:22.532Z,-2.73
2022-12-19T22:20:24.406Z,-2.84
2022-12-19T22:22:27.352Z,-2.74
2022-12-19T22:24:29.367Z,-2.71
2022-12-19T22:26:31.991Z,-2.66
2022-12-19T22:28:36.763Z,-2.62
2022-12-19T22:30:39.750Z,-2.64
2022-12-19T22:32:41.875Z,-2.55
2022-12-19T22:34:47.563Z,-2.57
2022-12-19T22:36:49.667Z,-2.49
2022-12-19T22:38:52.321Z,-2.49
2022-12-19T22:40:54.220Z,-2.42
2022-12-19T22:42:56.104Z,-2.42
2022-12-19T22:44:58.125Z,-2.37
2022-12-19T22:47:00.138Z,-2.37
2022-12-19T22:49:04.733Z,-2.29
2022-12-19T22:51:07.571Z,-2.33
2022-12-19T22:53:12.710Z,-2.31
2022-12-19T22:55:16.139Z,-2.24
2022-12-19T22:57:18.109Z,-2.28
2022-12-19T22:59:20.162Z,-2.22
2022-12-19T23:01:28.050Z,-2.22
2022-12-19T23:03:31.536Z,-2.19
2022-12-19T23:05:36.675Z,-2.17
2022-12-19T23:07:38.519Z,-2.10
2022-12-19T23:09:40.439Z,-2.07
2022-12-19T23:11:44.358Z,-2.07
2022-12-19T23:13:47.934Z,-2.01
2022-12-19T23:15:49.835Z,-1.98
2022-12-19T23:17:51.840Z,-1.95
2022-12-19T23:19:53.804Z,-1.88
2022-12-19T23:21:55.699Z,-1.94
2022-12-19T23:23:58.570Z,-1.86
2022-12-19T23:26:00.833Z,-1.86
2022-12-19T23:28:03.146Z,-1.81
2022-12-19T23:30:05.801Z,-1.78
2022-12-19T23:32:07.997Z,-1.75
2022-12-19T23:34:10.783Z,-1.75
2022-12-19T23:36:13.007Z,-1.75
2022-12-19T23:38:15.947Z,-1.67
2022-12-19T23:40:18.036Z,-1.64
2022-12-19T23:42:21.137Z,-1.60
2022-12-19T23:44:23.148Z,-1.53
2022-12-19T23:46:27.169Z,-1.52
2022-12-19T23:48:29.114Z,-1.45
2022-12-19T23:50:31.150Z,-1.40
2022-12-19T23:52:33.123Z,-1.43
2022-12-19T23:54:35.157Z,-1.36
2022-12-19T23:56:38.169Z,-1.38
2022-12-19T23:58:40.585Z,-1.41
